Time;durP1;ratioP1;P1;durP2;ratioP2;P2;SDS_P1;SDS_P2;PMS_P1;PMS_P2;Temp;Humidity;BMP_temperature;BMP_pressure;BME280_temperature;BME280_humidity;BME280_pressure;Samples;Min_cycle;Max_cycle;Signal;HPM_P1;HPM_P2
2022/04/07 00:02:12;;;;;;;2.38;2.28;;;10.20;99.90;;;;;;5117561;27;20202;-74
2022/04/07 00:04:39;;;;;;;4.15;2.40;;;10.20;99.90;;;;;;5118423;27;20240;-75
2022/04/07 00:07:05;;;;;;;2.88;2.67;;;10.20;99.90;;;;;;5136603;27;20218;-74
2022/04/07 00:09:31;;;;;;;4.30;2.40;;;10.20;99.90;;;;;;5135523;27;20300;-73
2022/04/07 00:11:58;;;;;;;2.90;2.70;;;10.10;99.90;;;;;;5135612;27;20202;-73
2022/04/07 00:14:24;;;;;;;2.47;2.28;;;10.20;99.90;;;;;;5135526;27;20273;-73
2022/04/07 00:16:51;;;;;;;2.40;2.10;;;10.20;99.90;;;;;;5134699;27;20660;-73
2022/04/07 00:19:17;;;;;;;1.90;1.80;;;10.20;99.90;;;;;;5135522;27;20725;-74
2022/04/07 00:21:46;;;;;;;2.75;2.55;;;10.20;99.90;;;;;;5135965;27;20210;-74
2022/04/07 00:24:13;;;;;;;1.95;1.85;;;10.10;99.90;;;;;;5135512;28;20218;-75
2022/04/07 00:26:39;;;;;;;2.25;2.05;;;10.10;99.90;;;;;;5135262;28;20286;-74
2022/04/07 00:29:06;;;;;;;2.50;1.90;;;10.10;99.90;;;;;;5137202;28;20738;-75
2022/04/07 00:31:39;;;;;;;2.30;2.20;;;10.20;99.90;;;;;;5138898;28;20572;-75
2022/04/07 00:34:07;;;;;;;3.08;2.47;;;10.20;99.90;;;;;;5121579;28;20229;-76
2022/04/07 00:36:33;;;;;;;2.00;1.90;;;10.30;99.90;;;;;;5138934;28;20190;-75
2022/04/07 00:38:59;;;;;;;2.00;1.77;;;10.30;99.90;;;;;;5138405;28;20276;-75
2022/04/07 00:41:26;;;;;;;1.63;1.52;;;10.30;99.90;;;;;;5139109;28;20202;-75
2022/04/07 00:43:52;;;;;;;2.15;1.80;;;10.30;99.90;;;;;;5120384;28;20713;-75
2022/04/07 00:46:19;;;;;;;2.28;2.17;;;10.30;99.90;;;;;;5138523;28;20725;-75
2022/04/07 00:48:46;;;;;;;1.80;1.70;;;10.30;99.90;;;;;;5119935;28;20224;-75
2022/04/07 00:51:12;;;;;;;1.95;1.80;;;10.40;99.90;;;;;;5138672;28;20193;-75
2022/04/07 00:53:39;;;;;;;1.85;1.75;;;10.40;99.90;;;;;;5123851;27;20606;-75
2022/04/07 00:56:07;;;;;;;2.47;1.80;;;10.30;99.90;;;;;;5124167;27;20251;-75
2022/04/07 00:58:34;;;;;;;1.67;1.30;;;10.30;99.90;;;;;;5124372;27;20548;-75
2022/04/07 01:01:01;;;;;;;1.67;1.58;;;10.30;99.90;;;;;;5107993;27;20205;-74
2022/04/07 01:03:27;;;;;;;1.60;1.50;;;10.20;99.90;;;;;;5141181;27;20222;-74
2022/04/07 01:05:54;;;;;;;1.52;1.42;;;10.30;99.90;;;;;;5123312;27;20222;-73
2022/04/07 01:08:21;;;;;;;1.88;1.77;;;10.30;99.90;;;;;;5141858;27;20222;-73
2022/04/07 01:10:49;;;;;;;2.85;1.98;;;10.30;99.90;;;;;;5121815;27;20196;-73
2022/04/07 01:13:15;;;;;;;2.20;1.40;;;10.40;99.90;;;;;;5122173;27;20205;-73
2022/04/07 01:15:42;;;;;;;2.88;1.80;;;10.50;99.90;;;;;;5142133;27;20209;-74
2022/04/07 01:18:08;;;;;;;5.68;1.10;;;10.50;99.90;;;;;;5123391;27;20298;-74
2022/04/07 01:20:35;;;;;;;2.35;1.48;;;10.60;99.90;;;;;;5122424;27;20592;-74
2022/04/07 01:23:02;;;;;;;1.60;1.50;;;10.60;99.90;;;;;;5141645;27;20649;-74
2022/04/07 01:25:29;;;;;;;2.15;1.25;;;10.50;99.90;;;;;;5141268;27;20579;-74
2022/04/07 01:27:56;;;;;;;1.63;1.40;;;10.40;99.90;;;;;;5141076;27;20208;-74
2022/04/07 01:30:23;;;;;;;2.20;1.40;;;10.40;99.90;;;;;;5122628;27;20255;-73
2022/04/07 01:32:56;;;;;;;1.30;1.20;;;10.40;99.90;;;;;;5140349;27;20210;-73
2022/04/07 01:35:23;;;;;;;2.53;1.88;;;10.40;99.90;;;;;;5141013;27;20327;-74
2022/04/07 01:37:52;;;;;;;1.58;1.48;;;10.30;99.90;;;;;;5140978;27;20286;-74
2022/04/07 01:40:22;;;;;;;1.00;1.00;;;10.30;99.90;;;;;;5140555;27;20205;-74
2022/04/07 01:42:52;;;;;;;1.45;1.27;;;10.30;99.90;;;;;;5139901;27;20296;-74
2022/04/07 01:45:20;;;;;;;2.75;1.50;;;10.40;99.90;;;;;;5121909;27;20213;-74
2022/04/07 01:47:46;;;;;;;1.20;1.10;;;10.40;99.90;;;;;;5104484;27;20209;-74
2022/04/07 01:50:16;;;;;;;1.45;1.35;;;10.30;99.90;;;;;;5140009;27;20194;-74
2022/04/07 01:52:43;;;;;;;1.35;1.25;;;10.20;99.90;;;;;;5139675;27;20193;-73
2022/04/07 01:55:09;;;;;;;2.88;1.70;;;10.10;99.90;;;;;;5137963;27;20198;-73
2022/04/07 01:57:37;;;;;;;1.95;1.52;;;10.00;99.90;;;;;;5139302;27;20210;-73
2022/04/07 02:00:05;;;;;;;32.50;27.17;;;9.90;99.90;;;;;;5121665;27;20210;-73
2022/04/07 02:02:31;;;;;;;19.17;14.55;;;9.80;99.90;;;;;;5121362;27;20210;-74
2022/04/07 02:05:08;;;;;;;2.67;2.42;;;9.70;99.90;;;;;;5121305;27;20218;-74
2022/04/07 02:07:36;;;;;;;2.10;1.70;;;9.80;99.90;;;;;;5140109;27;20223;-73
2022/04/07 02:10:07;;;;;;;2.00;1.80;;;9.70;99.90;;;;;;5139677;27;20222;-73
2022/04/07 02:12:37;;;;;;;3.05;2.75;;;9.80;99.90;;;;;;5140642;27;20193;-73
2022/04/07 02:15:05;;;;;;;1.73;1.45;;;9.70;99.90;;;;;;5139835;27;20204;-74
2022/04/07 02:17:32;;;;;;;2.72;2.63;;;9.70;99.90;;;;;;5139897;27;20549;-74
2022/04/07 02:20:00;;;;;;;2.90;2.70;;;9.70;99.90;;;;;;5121509;27;20202;-74
2022/04/07 02:22:28;;;;;;;10.15;9.10;;;9.70;99.90;;;;;;5140206;27;20206;-74
2022/04/07 02:24:56;;;;;;;7.40;6.22;;;9.60;99.90;;;;;;5139758;27;20597;-74
2022/04/07 02:27:23;;;;;;;8.85;6.90;;;9.60;99.90;;;;;;5140334;27;20559;-73
2022/04/07 02:29:49;;;;;;;17.52;14.55;;;9.70;99.90;;;;;;5139609;27;20206;-74
2022/04/07 02:32:16;;;;;;;1.90;1.80;;;9.70;99.90;;;;;;5139624;27;20213;-74
2022/04/07 02:34:43;;;;;;;6.55;6.03;;;9.60;99.90;;;;;;5121310;27;20254;-74
2022/04/07 02:37:10;;;;;;;5.55;5.25;;;9.60;99.90;;;;;;5139616;27;20197;-74
2022/04/07 02:39:37;;;;;;;5.80;5.50;;;9.70;99.90;;;;;;5139107;27;20210;-73
2022/04/07 02:42:03;;;;;;;3.55;3.35;;;9.70;99.90;;;;;;5138259;27;20598;-74
2022/04/07 02:44:30;;;;;;;2.40;2.30;;;9.80;99.90;;;;;;5102957;27;20205;-73
2022/04/07 02:46:56;;;;;;;1.95;1.85;;;9.80;99.90;;;;;;5120400;27;20246;-74
2022/04/07 02:49:24;;;;;;;1.95;1.33;;;9.80;99.90;;;;;;5139211;27;20208;-74
2022/04/07 02:51:50;;;;;;;1.33;1.30;;;9.80;99.90;;;;;;5120960;27;20652;-73
2022/04/07 02:54:17;;;;;;;1.80;1.70;;;9.90;99.90;;;;;;5139163;27;20716;-74
2022/04/07 02:56:43;;;;;;;2.97;1.55;;;10.00;99.90;;;;;;5120397;27;20659;-73
2022/04/07 02:59:10;;;;;;;1.40;1.30;;;10.00;99.90;;;;;;5103556;27;20194;-74
2022/04/07 03:01:36;;;;;;;2.35;1.48;;;10.10;99.90;;;;;;5138754;27;20212;-74
2022/04/07 03:04:03;;;;;;;1.48;1.38;;;10.00;99.90;;;;;;5138849;27;20190;-74
2022/04/07 03:06:29;;;;;;;1.50;1.40;;;10.00;99.90;;;;;;5138928;27;20222;-74
2022/04/07 03:08:55;;;;;;;1.33;1.10;;;10.00;99.90;;;;;;5138660;27;20239;-73
2022/04/07 03:11:22;;;;;;;1.58;1.45;;;10.00;99.90;;;;;;5139680;27;20259;-74
2022/04/07 03:13:48;;;;;;;2.70;1.08;;;10.00;99.90;;;;;;5120813;27;20198;-73
2022/04/07 03:16:15;;;;;;;1.75;1.05;;;10.00;99.90;;;;;;5138173;27;20220;-74
2022/04/07 03:18:41;;;;;;;1.75;1.25;;;10.10;99.90;;;;;;5138373;27;20198;-74
2022/04/07 03:21:07;;;;;;;1.40;1.30;;;10.10;99.90;;;;;;5137232;27;20201;-74
2022/04/07 03:23:34;;;;;;;1.55;1.25;;;10.20;99.90;;;;;;5102226;27;20206;-73
2022/04/07 03:26:01;;;;;;;9.27;1.17;;;10.10;99.90;;;;;;5120052;27;20262;-74
2022/04/07 03:28:28;;;;;;;4.40;1.38;;;10.10;99.90;;;;;;5138060;27;20197;-74
2022/04/07 03:30:54;;;;;;;1.30;1.20;;;10.10;99.90;;;;;;5138398;27;20564;-74
2022/04/07 03:33:21;;;;;;;1.38;1.27;;;10.10;99.90;;;;;;5139059;27;20230;-73
2022/04/07 03:35:47;;;;;;;2.25;1.10;;;10.20;99.90;;;;;;5121051;27;20631;-74
2022/04/07 03:38:14;;;;;;;1.25;1.00;;;10.20;99.90;;;;;;5138099;27;20224;-74
2022/04/07 03:40:40;;;;;;;1.60;0.90;;;10.20;99.90;;;;;;5120098;27;20198;-74
2022/04/07 03:43:06;;;;;;;1.10;1.00;;;10.20;99.90;;;;;;5138234;27;20206;-74
2022/04/07 03:45:33;;;;;;;0.90;0.90;;;10.30;99.90;;;;;;5138033;27;20217;-74
2022/04/07 03:47:59;;;;;;;0.95;0.95;;;10.40;99.90;;;;;;5138534;27;20207;-73
2022/04/07 03:50:26;;;;;;;5.38;1.02;;;10.30;99.90;;;;;;5120113;27;20197;-74
2022/04/07 03:52:53;;;;;;;1.00;0.80;;;10.30;99.90;;;;;;5120223;27;20209;-73
2022/04/07 03:55:20;;;;;;;0.88;0.80;;;10.40;99.90;;;;;;5119677;27;20202;-74
2022/04/07 03:57:47;;;;;;;3.00;1.17;;;10.50;99.90;;;;;;5137526;27;20204;-74
2022/04/07 04:00:16;;;;;;;1.30;1.20;;;10.50;99.90;;;;;;5137055;27;20198;-74
2022/04/07 04:02:42;;;;;;;1.60;0.88;;;10.40;99.90;;;;;;5102112;27;20201;-74
2022/04/07 04:05:09;;;;;;;4.10;1.27;;;10.40;99.90;;;;;;5138331;27;20214;-74
2022/04/07 04:07:36;;;;;;;1.08;0.80;;;10.40;99.90;;;;;;5119640;27;20194;-74
2022/04/07 04:10:03;;;;;;;0.90;0.90;;;10.40;99.90;;;;;;5138029;27;20593;-74
2022/04/07 04:12:30;;;;;;;1.13;1.02;;;10.40;99.90;;;;;;5102219;27;20194;-73
2022/04/07 04:14:56;;;;;;;1.98;1.27;;;10.30;99.90;;;;;;5120688;28;20209;-74
2022/04/07 04:17:23;;;;;;;0.80;0.80;;;10.30;99.90;;;;;;5140827;27;20198;-73
2022/04/07 04:19:50;;;;;;;1.17;1.08;;;10.40;99.90;;;;;;5121439;27;20288;-74
2022/04/07 04:22:16;;;;;;;2.65;1.40;;;10.30;99.90;;;;;;5139553;27;20285;-74
2022/04/07 04:24:43;;;;;;;1.38;1.00;;;10.30;99.90;;;;;;5119527;28;20212;-74
2022/04/07 04:27:09;;;;;;;1.20;1.10;;;10.30;99.90;;;;;;5137460;27;20205;-74
2022/04/07 04:29:36;;;;;;;2.88;0.93;;;10.10;99.90;;;;;;5137281;28;20193;-74
2022/04/07 04:32:02;;;;;;;1.85;1.30;;;10.00;99.90;;;;;;5137649;28;20211;-74
2022/04/07 04:34:29;;;;;;;1.73;1.10;;;9.90;99.90;;;;;;5119140;28;20201;-74
2022/04/07 04:36:55;;;;;;;1.83;1.30;;;9.90;99.90;;;;;;5137508;28;20198;-74
2022/04/07 04:39:21;;;;;;;2.60;1.60;;;9.90;99.90;;;;;;5136703;28;20206;-74
2022/04/07 04:41:48;;;;;;;1.27;1.17;;;9.90;99.90;;;;;;5117922;28;20209;-74
2022/04/07 04:44:15;;;;;;;1.30;1.15;;;9.90;99.90;;;;;;5118537;28;20567;-74
2022/04/07 04:46:41;;;;;;;1.50;1.05;;;10.00;99.90;;;;;;5119235;28;20217;-73
2022/04/07 04:49:08;;;;;;;1.80;1.10;;;10.10;99.90;;;;;;5137666;28;20197;-73
2022/04/07 04:51:34;;;;;;;1.88;1.15;;;10.10;99.90;;;;;;5137228;28;20201;-74
2022/04/07 04:54:01;;;;;;;0.90;0.90;;;10.10;99.90;;;;;;5137160;28;20668;-74
2022/04/07 04:56:27;;;;;;;2.08;0.80;;;10.20;99.90;;;;;;5118682;28;20546;-74
2022/04/07 04:58:57;;;;;;;1.23;1.00;;;10.20;99.90;;;;;;5137771;28;20287;-74
2022/04/07 05:01:24;;;;;;;1.95;1.35;;;10.20;99.90;;;;;;5137551;28;20205;-73
2022/04/07 05:03:50;;;;;;;1.02;0.90;;;10.20;99.90;;;;;;5137636;28;20197;-74
2022/04/07 05:06:16;;;;;;;1.02;0.80;;;10.20;99.90;;;;;;5118474;28;20229;-73
2022/04/07 05:08:43;;;;;;;1.13;1.02;;;10.30;99.90;;;;;;5137540;28;20225;-74
2022/04/07 05:11:10;;;;;;;1.00;1.00;;;10.30;99.90;;;;;;5138021;28;20782;-73
2022/04/07 05:13:36;;;;;;;0.90;0.90;;;10.40;99.90;;;;;;5137217;28;20190;-74
2022/04/07 05:16:03;;;;;;;0.82;0.80;;;10.30;99.90;;;;;;5137859;28;20213;-74
2022/04/07 05:18:30;;;;;;;0.70;0.70;;;10.30;99.90;;;;;;5136403;28;20212;-74
2022/04/07 05:20:56;;;;;;;0.65;0.65;;;10.40;99.90;;;;;;5117355;28;20620;-74
2022/04/07 05:23:22;;;;;;;0.80;0.70;;;10.40;99.90;;;;;;5136246;28;20198;-74
2022/04/07 05:25:49;;;;;;;1.25;0.70;;;10.40;99.90;;;;;;5136864;28;20210;-74
2022/04/07 05:28:15;;;;;;;3.60;0.73;;;10.40;99.90;;;;;;5136419;28;20559;-73
2022/04/07 05:30:42;;;;;;;2.25;1.08;;;10.40;99.90;;;;;;5118798;28;20505;-74
2022/04/07 05:33:08;;;;;;;1.73;0.80;;;10.40;99.90;;;;;;5118855;28;20221;-74
2022/04/07 05:35:34;;;;;;;0.70;0.70;;;10.40;99.90;;;;;;5136400;28;20210;-73
2022/04/07 05:38:02;;;;;;;0.88;0.70;;;10.40;99.90;;;;;;5118531;28;20202;-74
2022/04/07 05:40:29;;;;;;;1.10;0.80;;;10.40;99.90;;;;;;5139284;27;20288;-73
2022/04/07 05:42:56;;;;;;;0.73;0.73;;;10.30;99.90;;;;;;5140327;27;20315;-74
2022/04/07 05:45:23;;;;;;;2.10;0.80;;;10.30;99.90;;;;;;5140301;27;20668;-74
2022/04/07 05:47:49;;;;;;;0.90;0.90;;;10.40;99.90;;;;;;5121255;27;20198;-71
2022/04/07 05:50:17;;;;;;;1.00;1.00;;;10.40;99.90;;;;;;5121940;27;20202;-72
2022/04/07 05:52:43;;;;;;;1.00;0.90;;;10.40;99.90;;;;;;5121926;27;20198;-73
2022/04/07 05:55:10;;;;;;;1.55;0.80;;;10.30;99.90;;;;;;5120782;27;20205;-73
2022/04/07 05:57:36;;;;;;;1.67;0.80;;;10.30;99.90;;;;;;5103709;27;20619;-72
2022/04/07 06:00:12;;;;;;;0.80;0.80;;;10.20;99.90;;;;;;5138928;27;20197;-73
2022/04/07 06:02:39;;;;;;;2.85;0.82;;;10.20;99.90;;;;;;5138210;27;20197;-72
2022/04/07 06:05:07;;;;;;;0.80;0.80;;;10.10;99.90;;;;;;5138940;27;20197;-72
2022/04/07 06:07:33;;;;;;;1.63;0.98;;;10.00;99.90;;;;;;5137647;27;20202;-72
2022/04/07 06:10:00;;;;;;;0.80;0.80;;;9.90;99.90;;;;;;5138511;27;20234;-73
2022/04/07 06:12:26;;;;;;;1.05;1.05;;;9.70;99.90;;;;;;5138153;27;20194;-73
2022/04/07 06:14:53;;;;;;;2.03;1.20;;;9.60;99.90;;;;;;5120505;27;20249;-73
2022/04/07 06:17:19;;;;;;;1.25;1.23;;;9.60;99.90;;;;;;5139520;27;20560;-72
2022/04/07 06:19:46;;;;;;;0.80;0.80;;;9.50;99.90;;;;;;5138819;27;20687;-72
2022/04/07 06:22:12;;;;;;;1.00;1.00;;;9.50;99.90;;;;;;5138279;27;20659;-72
2022/04/07 06:24:38;;;;;;;3.05;0.90;;;9.50;99.90;;;;;;5138037;27;20630;-72
2022/04/07 06:27:05;;;;;;;2.20;1.00;;;9.50;99.90;;;;;;5138182;27;20218;-71
2022/04/07 06:29:31;;;;;;;0.90;0.90;;;9.50;99.90;;;;;;5137526;27;20565;-72
2022/04/07 06:31:58;;;;;;;1.35;1.10;;;9.40;99.90;;;;;;5138519;27;20194;-73
2022/04/07 06:34:24;;;;;;;1.20;1.10;;;9.40;99.90;;;;;;5137910;27;20202;-73
2022/04/07 06:36:51;;;;;;;0.90;0.90;;;9.40;99.90;;;;;;5120081;27;20255;-72
2022/04/07 06:39:17;;;;;;;2.13;1.02;;;9.40;99.90;;;;;;5136259;27;20202;-73
2022/04/07 06:41:44;;;;;;;2.15;1.15;;;9.40;99.90;;;;;;5119689;27;20204;-73
2022/04/07 06:44:10;;;;;;;1.58;1.20;;;9.40;99.90;;;;;;5138221;27;20202;-73
2022/04/07 06:46:36;;;;;;;1.17;1.00;;;9.50;99.90;;;;;;5138120;27;20224;-73
2022/04/07 06:49:03;;;;;;;1.40;1.17;;;9.50;99.90;;;;;;5119360;27;20193;-73
2022/04/07 06:51:30;;;;;;;3.72;1.23;;;9.50;99.90;;;;;;5137386;27;20208;-74
2022/04/07 06:53:56;;;;;;;1.77;1.20;;;9.50;99.90;;;;;;5138444;27;20219;-73
2022/04/07 06:56:23;;;;;;;1.58;1.00;;;9.50;99.90;;;;;;5137706;27;20254;-72
2022/04/07 06:58:50;;;;;;;3.28;1.23;;;9.50;99.90;;;;;;5137885;27;20301;-73
2022/04/07 07:01:18;;;;;;;1.83;1.25;;;9.50;99.90;;;;;;5138133;27;20202;-73
2022/04/07 07:03:44;;;;;;;2.95;1.20;;;9.50;99.90;;;;;;5137731;27;20229;-73
2022/04/07 07:06:10;;;;;;;1.00;1.00;;;9.50;99.90;;;;;;5137011;27;20661;-73
2022/04/07 07:08:37;;;;;;;1.20;1.10;;;9.50;99.90;;;;;;5137702;27;20233;-72
2022/04/07 07:11:03;;;;;;;2.65;1.10;;;9.50;99.90;;;;;;5136602;27;20258;-73
2022/04/07 07:13:32;;;;;;;0.88;0.88;;;9.60;99.90;;;;;;5137892;27;20196;-72
2022/04/07 07:15:59;;;;;;;2.80;1.27;;;9.60;99.90;;;;;;5136912;27;20201;-73
2022/04/07 07:18:25;;;;;;;1.00;1.00;;;9.60;99.90;;;;;;5137684;27;20205;-72
2022/04/07 07:20:52;;;;;;;3.20;1.05;;;9.60;99.90;;;;;;5119814;27;20255;-74
2022/04/07 07:23:19;;;;;;;1.73;1.20;;;9.60;99.90;;;;;;5137373;27;20227;-72
2022/04/07 07:25:47;;;;;;;1.75;1.55;;;9.60;99.90;;;;;;5137473;27;20217;-72
2022/04/07 07:28:13;;;;;;;1.80;1.17;;;9.60;99.90;;;;;;5102738;27;20202;-72
2022/04/07 07:30:40;;;;;;;1.90;1.38;;;9.60;99.90;;;;;;5118113;27;20201;-72
2022/04/07 07:33:07;;;;;;;1.92;1.40;;;9.60;99.90;;;;;;5136845;27;20653;-72
2022/04/07 07:35:34;;;;;;;1.23;1.13;;;9.70;99.90;;;;;;5136585;27;20209;-72
2022/04/07 07:38:02;;;;;;;2.33;1.20;;;9.70;99.90;;;;;;5119128;27;20202;-73
2022/04/07 07:40:30;;;;;;;1.88;1.20;;;9.80;99.90;;;;;;5137373;27;20194;-72
2022/04/07 07:42:59;;;;;;;1.60;1.25;;;9.80;99.90;;;;;;5137634;27;20196;-73
2022/04/07 07:45:28;;;;;;;1.83;1.10;;;9.80;99.90;;;;;;5117870;27;20653;-72
2022/04/07 07:47:54;;;;;;;2.80;0.93;;;9.80;99.90;;;;;;5136329;27;20193;-72
2022/04/07 07:50:21;;;;;;;1.00;1.00;;;9.80;99.90;;;;;;5117634;27;20196;-72
2022/04/07 07:52:47;;;;;;;2.20;1.20;;;9.80;99.90;;;;;;5137053;27;20198;-72
2022/04/07 07:55:14;;;;;;;2.20;1.13;;;9.80;99.90;;;;;;5136586;27;20193;-72
2022/04/07 07:57:41;;;;;;;1.17;1.08;;;9.80;99.90;;;;;;5136360;27;20220;-71
2022/04/07 08:00:10;;;;;;;2.20;2.00;;;9.90;99.90;;;;;;5136027;27;20217;-72
2022/04/07 08:02:37;;;;;;;1.30;1.20;;;10.00;99.90;;;;;;5116357;27;20224;-73
2022/04/07 08:05:05;;;;;;;1.27;1.00;;;10.00;99.90;;;;;;5135671;27;20213;-72
2022/04/07 08:07:32;;;;;;;1.75;1.00;;;10.10;99.90;;;;;;5136768;27;20622;-72
2022/04/07 08:09:59;;;;;;;1.58;1.17;;;10.10;99.90;;;;;;5114071;28;20226;-71
2022/04/07 08:12:26;;;;;;;4.53;1.00;;;10.20;99.90;;;;;;5116238;28;20662;-72
2022/04/07 08:14:53;;;;;;;1.05;1.05;;;10.30;99.90;;;;;;5115965;28;20598;-72
2022/04/07 08:17:20;;;;;;;1.77;1.45;;;10.30;99.90;;;;;;5116136;28;20535;-72
2022/04/07 08:19:47;;;;;;;1.73;1.20;;;10.30;99.90;;;;;;5116947;28;20199;-73
2022/04/07 08:22:15;;;;;;;1.25;1.15;;;10.20;99.90;;;;;;5116811;28;20217;-72
2022/04/07 08:24:41;;;;;;;3.60;1.25;;;10.10;99.90;;;;;;5113940;28;20191;-71
2022/04/07 08:27:07;;;;;;;2.05;1.20;;;10.00;99.90;;;;;;5116521;28;20237;-72
2022/04/07 08:29:34;;;;;;;2.13;1.30;;;10.00;99.90;;;;;;5116576;28;20198;-71
2022/04/07 08:32:01;;;;;;;4.60;1.40;;;9.90;99.90;;;;;;5116691;28;20278;-71
2022/04/07 08:34:27;;;;;;;3.90;1.70;;;9.90;99.90;;;;;;5116370;28;20198;-72
2022/04/07 08:36:53;;;;;;;1.42;1.33;;;9.80;99.90;;;;;;5114925;28;20194;-72
2022/04/07 08:39:20;;;;;;;2.70;1.52;;;9.80;99.90;;;;;;5097491;28;20194;-71
2022/04/07 08:41:48;;;;;;;1.50;1.40;;;9.80;99.90;;;;;;5115384;28;20239;-71
2022/04/07 08:44:18;;;;;;;2.17;1.25;;;9.90;99.90;;;;;;5113140;28;20259;-71
2022/04/07 08:46:52;;;;;;;2.47;1.58;;;10.00;99.90;;;;;;5112834;28;20267;-73
2022/04/07 08:49:23;;;;;;;3.72;1.20;;;10.10;99.90;;;;;;5115270;28;20187;-72
2022/04/07 08:51:52;;;;;;;3.10;1.45;;;10.20;99.90;;;;;;5115481;28;20551;-72
2022/04/07 08:54:22;;;;;;;1.52;1.00;;;10.40;99.90;;;;;;5114808;28;20256;-71
2022/04/07 08:56:49;;;;;;;2.78;1.20;;;10.50;99.90;;;;;;5115679;28;20199;-71
2022/04/07 08:59:16;;;;;;;2.35;1.23;;;10.50;99.90;;;;;;5114546;28;20612;-71
2022/04/07 09:01:43;;;;;;;2.10;1.23;;;10.60;99.90;;;;;;5116026;28;20252;-72
2022/04/07 09:04:15;;;;;;;1.15;1.05;;;10.60;99.90;;;;;;5115567;28;20203;-71
2022/04/07 09:06:42;;;;;;;1.60;1.38;;;10.60;99.90;;;;;;5114092;28;20674;-71
2022/04/07 09:09:19;;;;;;;1.45;0.95;;;10.50;99.90;;;;;;5126087;28;20308;-72
2022/04/07 09:11:46;;;;;;;5.03;1.20;;;10.40;99.90;;;;;;5135424;28;20200;-72
2022/04/07 09:14:14;;;;;;;1.30;1.20;;;10.30;99.90;;;;;;5137117;27;20190;-72
2022/04/07 09:16:41;;;;;;;3.72;1.50;;;10.30;99.90;;;;;;5139091;27;20224;-73
2022/04/07 09:19:08;;;;;;;1.88;1.23;;;10.30;99.90;;;;;;5121576;27;20208;-73
2022/04/07 09:21:36;;;;;;;2.80;1.98;;;10.30;99.90;;;;;;5138244;27;20672;-72
2022/04/07 09:24:07;;;;;;;1.00;1.00;;;10.30;99.90;;;;;;5139870;27;20206;-72
2022/04/07 09:26:36;;;;;;;2.00;1.42;;;10.20;99.90;;;;;;5121001;27;20202;-71
2022/04/07 09:29:10;;;;;;;5.97;1.42;;;10.30;99.90;;;;;;5120712;27;20194;-72
2022/04/07 09:31:50;;;;;;;3.08;1.70;;;10.20;99.90;;;;;;5121936;27;20257;-72
2022/04/07 09:34:30;;;;;;;4.32;1.30;;;10.30;99.90;;;;;;5139498;27;20182;-71
2022/04/07 09:37:10;;;;;;;1.77;1.20;;;10.30;99.90;;;;;;5139238;27;20209;-72
2022/04/07 09:39:39;;;;;;;1.33;1.23;;;10.50;99.90;;;;;;5139852;27;20182;-72
2022/04/07 09:42:23;;;;;;;2.17;1.42;;;10.50;99.90;;;;;;5139189;27;20206;-72
2022/04/07 09:44:51;;;;;;;1.70;1.40;;;10.60;99.90;;;;;;5139431;27;20205;-74
2022/04/07 09:47:19;;;;;;;1.45;1.35;;;10.60;99.90;;;;;;5140784;27;20218;-74
2022/04/07 09:49:48;;;;;;;7.85;1.50;;;10.80;99.90;;;;;;5139939;27;20633;-73
2022/04/07 09:52:19;;;;;;;4.10;1.27;;;10.90;99.90;;;;;;5141528;27;20201;-73
2022/04/07 09:54:50;;;;;;;1.95;1.10;;;11.00;99.90;;;;;;5140302;27;20292;-73
2022/04/07 09:57:19;;;;;;;2.15;1.23;;;10.90;99.90;;;;;;5138545;27;20597;-73
2022/04/07 09:59:46;;;;;;;1.77;1.02;;;10.90;99.90;;;;;;5105771;27;20213;-71
2022/04/07 10:02:16;;;;;;;2.38;1.15;;;11.00;99.90;;;;;;5139536;27;20284;-72
2022/04/07 10:04:43;;;;;;;0.80;0.80;;;11.00;99.90;;;;;;5140011;27;20198;-71
2022/04/07 10:07:11;;;;;;;1.00;1.00;;;11.10;99.90;;;;;;5139421;27;20217;-72
2022/04/07 10:09:40;;;;;;;2.15;1.02;;;11.30;99.90;;;;;;5139272;27;20249;-72
2022/04/07 10:12:10;;;;;;;1.45;0.90;;;11.30;99.90;;;;;;5139751;27;20193;-72
2022/04/07 10:14:37;;;;;;;0.85;0.85;;;11.30;99.90;;;;;;5139523;27;20250;-72
2022/04/07 10:17:05;;;;;;;1.23;0.82;;;11.30;99.90;;;;;;5138878;27;20210;-72
2022/04/07 10:19:50;;;;;;;1.05;0.70;;;11.50;99.90;;;;;;5138100;27;20198;-72
2022/04/07 10:22:41;;;;;;;0.88;0.85;;;11.40;99.90;;;;;;5139421;27;20236;-72
2022/04/07 10:25:08;;;;;;;1.15;0.80;;;11.50;99.90;;;;;;5139189;27;20625;-72
2022/04/07 10:27:48;;;;;;;1.23;0.80;;;11.40;99.90;;;;;;5138890;27;20218;-72
2022/04/07 10:30:16;;;;;;;1.23;0.80;;;11.40;99.90;;;;;;5121816;27;20186;-72
2022/04/07 10:32:47;;;;;;;0.80;0.80;;;11.40;99.90;;;;;;5138997;27;20284;-72
2022/04/07 10:35:36;;;;;;;2.80;1.17;;;11.50;99.90;;;;;;5139006;27;20186;-72
2022/04/07 10:38:06;;;;;;;1.17;0.77;;;11.60;99.90;;;;;;5140016;27;20167;-72
2022/04/07 10:40:49;;;;;;;1.05;0.90;;;11.60;99.90;;;;;;5139265;27;20649;-72
2022/04/07 10:43:20;;;;;;;1.33;0.73;;;11.80;99.90;;;;;;5139496;27;20190;-72
2022/04/07 10:45:51;;;;;;;0.70;0.70;;;11.70;99.90;;;;;;5138549;27;20605;-72
2022/04/07 10:48:29;;;;;;;1.58;0.90;;;11.50;99.90;;;;;;5138813;27;20282;-72
2022/04/07 10:51:10;;;;;;;1.00;0.90;;;11.50;99.90;;;;;;5120332;27;20643;-73
2022/04/07 10:53:39;;;;;;;1.35;0.80;;;11.60;99.90;;;;;;5119999;27;20193;-72
2022/04/07 10:56:24;;;;;;;0.93;0.70;;;11.60;99.90;;;;;;5138109;27;20221;-72
2022/04/07 10:58:55;;;;;;;0.70;0.70;;;11.60;99.90;;;;;;5138307;27;20178;-74
2022/04/07 11:01:30;;;;;;;0.70;0.70;;;11.70;99.90;;;;;;5137990;27;20672;-72
2022/04/07 11:04:18;;;;;;;0.80;0.70;;;11.70;99.90;;;;;;5138154;27;20201;-72
2022/04/07 11:09:58;;;;;;;0.70;0.70;;;11.90;99.90;;;;;;5137163;27;20225;-72
2022/04/07 11:12:33;;;;;;;0.70;0.70;;;11.90;99.90;;;;;;5137333;27;20277;-72
2022/04/07 11:15:02;;;;;;;0.60;0.60;;;11.80;99.90;;;;;;5138306;27;20182;-72
2022/04/07 11:17:47;;;;;;;0.70;0.70;;;12.00;99.90;;;;;;5137666;27;20205;-72
2022/04/07 11:20:21;;;;;;;0.70;0.70;;;11.80;99.90;;;;;;5119294;27;20628;-73
2022/04/07 11:22:55;;;;;;;2.58;0.60;;;11.50;99.90;;;;;;5138114;27;20273;-72
2022/04/07 11:25:27;;;;;;;1.88;0.60;;;11.40;99.90;;;;;;5119238;27;20198;-72
2022/04/07 11:28:14;;;;;;;0.55;0.55;;;11.40;99.90;;;;;;5138003;27;20209;-72
2022/04/07 11:30:49;;;;;;;0.90;0.90;;;11.30;99.90;;;;;;5137714;27;20277;-73
2022/04/07 11:33:18;;;;;;;1.08;0.88;;;11.40;99.90;;;;;;5137786;27;20189;-72
2022/04/07 11:36:00;;;;;;;1.20;0.70;;;11.40;99.90;;;;;;5137797;27;20208;-72
2022/04/07 11:38:45;;;;;;;4.15;0.98;;;11.40;99.90;;;;;;5136437;27;20653;-72
2022/04/07 11:41:16;;;;;;;0.60;0.60;;;11.40;99.90;;;;;;5119109;27;20280;-72
2022/04/07 11:43:50;;;;;;;0.82;0.60;;;11.40;99.90;;;;;;5138505;27;20183;-72
2022/04/07 11:46:30;;;;;;;0.90;0.68;;;11.50;99.90;;;;;;5119054;27;20209;-73
2022/04/07 11:48:58;;;;;;;0.60;0.60;;;11.70;99.90;;;;;;5138492;27;20566;-72
2022/04/07 11:51:26;;;;;;;1.30;0.63;;;11.80;99.90;;;;;;5137740;27;20220;-72
2022/04/07 11:53:54;;;;;;;0.70;0.70;;;11.90;99.90;;;;;;5137185;27;20198;-73
2022/04/07 11:56:25;;;;;;;1.67;0.75;;;12.00;99.90;;;;;;5102648;27;20210;-73
2022/04/07 11:59:10;;;;;;;0.60;0.55;;;11.90;99.90;;;;;;5121037;27;20548;-73
2022/04/07 12:01:38;;;;;;;0.60;0.50;;;11.90;99.90;;;;;;5137737;27;20186;-73
2022/04/07 12:04:06;;;;;;;0.68;0.60;;;12.10;99.90;;;;;;5138593;27;20174;-72
2022/04/07 12:06:34;;;;;;;1.58;0.60;;;12.10;99.90;;;;;;5138286;27;20225;-72
2022/04/07 12:09:03;;;;;;;0.70;0.70;;;12.10;99.90;;;;;;5137456;27;20271;-72
2022/04/07 12:11:32;;;;;;;0.75;0.75;;;12.30;99.90;;;;;;5137194;27;20202;-72
2022/04/07 12:13:59;;;;;;;0.60;0.60;;;12.30;99.90;;;;;;5137882;27;20254;-73
2022/04/07 12:16:26;;;;;;;0.60;0.60;;;12.40;99.90;;;;;;5137359;27;20649;-73
2022/04/07 12:19:00;;;;;;;3.50;0.70;;;12.50;99.90;;;;;;5139118;27;20630;-73
2022/04/07 12:21:29;;;;;;;0.70;0.57;;;12.60;99.90;;;;;;5137890;27;20193;-72
2022/04/07 12:24:13;;;;;;;1.00;0.70;;;12.70;99.90;;;;;;5138127;27;20710;-73
2022/04/07 12:26:48;;;;;;;3.30;0.53;;;13.00;99.90;;;;;;5102591;28;21236;-72
2022/04/07 12:29:22;;;;;;;0.63;0.63;;;13.00;99.90;;;;;;5120907;28;20607;-72
2022/04/07 12:32:06;;;;;;;0.60;0.53;;;13.00;99.90;;;;;;5138550;28;20721;-72
2022/04/07 12:34:34;;;;;;;1.53;0.60;;;13.10;99.90;;;;;;5137216;28;20601;-72
2022/04/07 12:37:01;;;;;;;1.25;0.60;;;13.10;99.90;;;;;;5138603;28;20651;-72
2022/04/07 12:39:32;;;;;;;0.50;0.50;;;13.20;99.90;;;;;;5138603;28;20285;-73
2022/04/07 12:42:04;;;;;;;0.90;0.60;;;13.20;99.90;;;;;;5137716;28;20739;-72
2022/04/07 12:44:30;;;;;;;0.60;0.60;;;13.20;99.90;;;;;;5138110;28;20756;-72
2022/04/07 12:46:58;;;;;;;0.70;0.60;;;13.30;99.90;;;;;;5138091;28;20218;-72
2022/04/07 12:49:33;;;;;;;0.70;0.50;;;13.40;99.90;;;;;;5139842;27;20607;-72
2022/04/07 12:52:06;;;;;;;1.10;0.60;;;13.40;99.90;;;;;;5142422;27;20618;-72
2022/04/07 12:54:35;;;;;;;0.80;0.70;;;13.50;99.90;;;;;;5142045;27;20604;-72
2022/04/07 12:57:12;;;;;;;2.50;0.70;;;13.40;99.90;;;;;;5142141;27;21180;-72
2022/04/07 12:59:40;;;;;;;0.60;0.60;;;13.30;99.90;;;;;;5123848;27;20598;-72